^^
Peaceful Hills Weather Station Historical Data
Daily Summary for September 20, 2020 Units:  Both    English   Metric
Daily Weekly Monthly Yearly Custom
  High: Low: Average:
Temperature: 80.9 °F /  27.2 °C 58.9 °F /  14.9 °C 68.6 °F /  20.3 °C
Dew Point: 63.6 °F /  17.6 °C 51.8 °F /  11 °C 58 °F /  14.4 °C
Humidity: 83.6% 53.4% 70%
Wind Speed: 6.8mph /  10.9km/h - 1.2mph /  1.9km/h
Wind Gust: 21mph /  33.8km/h - -
Wind- - SE
Pressure: 30.23 in /  1023.6 hPa 30.13 in /  1020.2 hPa -
Precipitation: 0.00 in /  0 mm    
Historical Graphs
 
 
Tabular Data for September 20, 2020
Time Temperature Dew Point Pressure Wind Wind Speed Wind Gust Humidity Rainfall Rate (Hourly)
00:04 62.1 °F /  16.7 °C 52.8 °F /  11.6 °C 30.18in /  1021.9hPa North 1.4mph /  2.3km/h 5mph /  8km/h 71.6% 0.00in /  0mm
00:09 62 °F /  16.7 °C 52.8 °F /  11.6 °C 30.18in /  1021.9hPa South 1.6mph /  2.6km/h 5mph /  8km/h 71.8% 0.00in /  0mm
00:14 61.9 °F /  16.6 °C 52.4 °F /  11.3 °C 30.18in /  1021.9hPa ENE 1.8mph /  2.9km/h 10mph /  16.1km/h 71% 0.00in /  0mm
00:19 62 °F /  16.7 °C 52.5 °F /  11.4 °C 30.18in /  1021.9hPa Calm   12mph /  19.3km/h 71% 0.00in /  0mm
00:24 62 °F /  16.7 °C 52.4 °F /  11.3 °C 30.18in /  1021.9hPa East 2mph /  3.2km/h 5mph /  8km/h 70.8% 0.00in /  0mm
00:29 62.1 °F /  16.7 °C 52.5 °F /  11.4 °C 30.18in /  1021.9hPa ESE 1.4mph /  2.3km/h 14mph /  22.5km/h 70.8% 0.00in /  0mm
00:34 62.2 °F /  16.8 °C 52.2 °F /  11.2 °C 30.18in /  1021.9hPa ENE 5mph /  8km/h 16mph /  25.7km/h 69.8% 0.00in /  0mm
00:39 62.3 °F /  16.8 °C 52 °F /  11.1 °C 30.18in /  1021.9hPa Calm   7mph /  11.3km/h 69.2% 0.00in /  0mm
00:44 62.3 °F /  16.8 °C 52 °F /  11.1 °C 30.18in /  1021.9hPa ESE 1.2mph /  1.9km/h 10mph /  16.1km/h 69.2% 0.00in /  0mm
00:49 62.2 °F /  16.8 °C 52.2 °F /  11.2 °C 30.18in /  1021.9hPa SSE 1.2mph /  1.9km/h 10mph /  16.1km/h 69.8% 0.00in /  0mm
00:54 62 °F /  16.7 °C 52.2 °F /  11.2 °C 30.18in /  1021.9hPa SSE 0.8mph /  1.3km/h 5mph /  8km/h 70.2% 0.00in /  0mm
00:59 61.9 °F /  16.6 °C 52.2 °F /  11.2 °C 30.17in /  1021.6hPa Calm   10mph /  16.1km/h 70.6% 0.00in /  0mm
01:04 61.8 °F /  16.6 °C 52.1 °F /  11.2 °C 30.17in /  1021.6hPa NNW 0.4mph /  0.6km/h 10mph /  16.1km/h 70.6% 0.00in /  0mm
01:09 61.6 °F /  16.4 °C 52.1 °F /  11.2 °C 30.17in /  1021.6hPa SE 1mph /  1.6km/h 9mph /  14.5km/h 71% 0.00in /  0mm
01:14 61.5 °F /  16.4 °C 52 °F /  11.1 °C 30.17in /  1021.6hPa NNE 0.8mph /  1.3km/h 9mph /  14.5km/h 71.2% 0.00in /  0mm
01:19 61.4 °F /  16.3 °C 52.1 °F /  11.2 °C 30.17in /  1021.6hPa East 1mph /  1.6km/h 9mph /  14.5km/h 71.6% 0.00in /  0mm
01:24 61.3 °F /  16.3 °C 52.2 °F /  11.2 °C 30.17in /  1021.6hPa SE 1.4mph /  2.3km/h 14mph /  22.5km/h 72% 0.00in /  0mm
01:29 61.2 °F /  16.2 °C 52.1 °F /  11.2 °C 30.17in /  1021.6hPa ESE 2.4mph /  3.9km/h 12mph /  19.3km/h 72% 0.00in /  0mm
01:34 61.1 °F /  16.2 °C 52 °F /  11.1 °C 30.17in /  1021.6hPa SE 2mph /  3.2km/h 12mph /  19.3km/h 72% 0.00in /  0mm
01:39 61 °F /  16.1 °C 51.9 °F /  11.1 °C 30.17in /  1021.6hPa East 0.4mph /  0.6km/h 9mph /  14.5km/h 72% 0.00in /  0mm
01:44 60.9 °F /  16.1 °C 51.9 °F /  11.1 °C 30.17in /  1021.6hPa ESE 3mph /  4.8km/h 14mph /  22.5km/h 72.2% 0.00in /  0mm
01:49 60.9 °F /  16.1 °C 51.8 °F /  11 °C 30.17in /  1021.6hPa Calm   9mph /  14.5km/h 72% 0.00in /  0mm
01:54 60.8 °F /  16 °C 52.1 °F /  11.2 °C 30.17in /  1021.6hPa Calm     73% 0.00in /  0mm
01:59 60.6 °F /  15.9 °C 52.1 °F /  11.2 °C 30.17in /  1021.6hPa Calm     73.4% 0.00in /  0mm
02:04 60.4 °F /  15.8 °C 52 °F /  11.1 °C 30.17in /  1021.6hPa SE 0.8mph /  1.3km/h 4mph /  6.4km/h 73.8% 0.00in /  0mm
02:09 60.3 °F /  15.7 °C 52 °F /  11.1 °C 30.17in /  1021.6hPa ENE 1.4mph /  2.3km/h 12mph /  19.3km/h 74% 0.00in /  0mm
02:14 60.2 °F /  15.7 °C 51.9 °F /  11.1 °C 30.17in /  1021.6hPa ESE 2.8mph /  4.5km/h 9mph /  14.5km/h 74% 0.00in /  0mm
02:19 60.1 °F /  15.6 °C 52.1 °F /  11.2 °C 30.17in /  1021.6hPa South 0.8mph /  1.3km/h 9mph /  14.5km/h 75% 0.00in /  0mm
02:24 60 °F /  15.6 °C 52.1 °F /  11.2 °C 30.17in /  1021.6hPa NNE 0.4mph /  0.6km/h 7mph /  11.3km/h 75% 0.00in /  0mm
02:29 59.9 °F /  15.5 °C 52 °F /  11.1 °C 30.17in /  1021.6hPa North 1mph /  1.6km/h 14mph /  22.5km/h 75% 0.00in /  0mm
02:34 60 °F /  15.6 °C 52.1 °F /  11.2 °C 30.16in /  1021.2hPa East 2mph /  3.2km/h 14mph /  22.5km/h 75% 0.00in /  0mm
02:39 60 °F /  15.6 °C 52.1 °F /  11.2 °C 30.16in /  1021.2hPa ENE 2.6mph /  4.2km/h 12mph /  19.3km/h 75% 0.00in /  0mm
02:44 60 °F /  15.6 °C 52.1 °F /  11.2 °C 30.16in /  1021.2hPa Calm   12mph /  19.3km/h 75.2% 0.00in /  0mm
02:49 59.8 °F /  15.4 °C 52 °F /  11.1 °C 30.16in /  1021.2hPa Calm   2mph /  3.2km/h 75.2% 0.00in /  0mm
02:54 59.8 °F /  15.4 °C 52.2 °F /  11.2 °C 30.16in /  1021.2hPa Calm   4mph /  6.4km/h 76% 0.00in /  0mm
02:59 59.7 °F /  15.4 °C 52.1 °F /  11.2 °C 30.16in /  1021.2hPa East 1.2mph /  1.9km/h 5mph /  8km/h 76% 0.00in /  0mm
03:04 59.6 °F /  15.3 °C 52.1 °F /  11.2 °C 30.16in /  1021.2hPa Calm   7mph /  11.3km/h 76.2% 0.00in /  0mm
03:09 59.6 °F /  15.3 °C 52.2 °F /  11.2 °C 30.16in /  1021.2hPa Calm   7mph /  11.3km/h 76.6% 0.00in /  0mm
03:14 59.6 °F /  15.3 °C 52.3 °F /  11.3 °C 30.16in /  1021.2hPa Calm     76.8% 0.00in /  0mm
03:19 59.6 °F /  15.3 °C 52.4 °F /  11.3 °C 30.16in /  1021.2hPa Calm   9mph /  14.5km/h 77% 0.00in /  0mm
03:24 59.5 °F /  15.3 °C 52.3 °F /  11.3 °C 30.16in /  1021.2hPa Calm   2mph /  3.2km/h 77% 0.00in /  0mm
03:29 59.4 °F /  15.2 °C 52.3 °F /  11.3 °C 30.16in /  1021.2hPa East 0.8mph /  1.3km/h 5mph /  8km/h 77.2% 0.00in /  0mm
03:34 59.4 °F /  15.2 °C 52.4 °F /  11.3 °C 30.16in /  1021.2hPa ENE 0.4mph /  0.6km/h 12mph /  19.3km/h 77.8% 0.00in /  0mm
03:39 59.4 °F /  15.2 °C 52.4 °F /  11.3 °C 30.16in /  1021.2hPa ENE 1.6mph /  2.6km/h 12mph /  19.3km/h 77.8% 0.00in /  0mm
03:44 59.3 °F /  15.2 °C 52.4 °F /  11.3 °C 30.16in /  1021.2hPa Calm   5mph /  8km/h 78% 0.00in /  0mm
03:49 59.3 °F /  15.2 °C 52.6 °F /  11.4 °C 30.16in /  1021.2hPa Calm   2mph /  3.2km/h 78.6% 0.00in /  0mm
03:54 59.2 °F /  15.1 °C 52.5 °F /  11.4 °C 30.16in /  1021.2hPa ENE 2.4mph /  3.9km/h 9mph /  14.5km/h 78.6% 0.00in /  0mm
03:59 59.2 °F /  15.1 °C 52.7 °F /  11.5 °C 30.16in /  1021.2hPa Calm   5mph /  8km/h 79% 0.00in /  0mm
04:04 59.2 °F /  15.1 °C 52.7 °F /  11.5 °C 30.15in /  1020.9hPa NE 1mph /  1.6km/h 12mph /  19.3km/h 79% 0.00in /  0mm
04:09 59.3 °F /  15.2 °C 52.8 °F /  11.6 °C 30.16in /  1021.2hPa ESE 1.8mph /  2.9km/h 5mph /  8km/h 79% 0.00in /  0mm
04:14 59.3 °F /  15.2 °C 52.8 °F /  11.6 °C 30.15in /  1020.9hPa Calm   9mph /  14.5km/h 79% 0.00in /  0mm
04:19 59.3 °F /  15.2 °C 52.8 °F /  11.6 °C 30.15in /  1020.9hPa SE 1.8mph /  2.9km/h 7mph /  11.3km/h 79% 0.00in /  0mm
04:24 59.3 °F /  15.2 °C 52.8 °F /  11.6 °C 30.16in /  1021.2hPa East 1.4mph /  2.3km/h 12mph /  19.3km/h 79% 0.00in /  0mm
04:29 59.2 °F /  15.1 °C 52.9 °F /  11.6 °C 30.16in /  1021.2hPa SE 0.8mph /  1.3km/h 9mph /  14.5km/h 79.8% 0.00in /  0mm
04:34 59.2 °F /  15.1 °C 53 °F /  11.7 °C 30.16in /  1021.2hPa Calm     80% 0.00in /  0mm
04:39 59.3 °F /  15.2 °C 53.1 °F /  11.7 °C 30.15in /  1020.9hPa ESE 1mph /  1.6km/h 7mph /  11.3km/h 80% 0.00in /  0mm
04:44 59.3 °F /  15.2 °C 53.1 °F /  11.7 °C 30.16in /  1021.2hPa SE 1.8mph /  2.9km/h 12mph /  19.3km/h 80% 0.00in /  0mm
04:49 59.3 °F /  15.2 °C 53.3 °F /  11.8 °C 30.16in /  1021.2hPa East 0.4mph /  0.6km/h 12mph /  19.3km/h 80.4% 0.00in /  0mm
04:54 59.2 °F /  15.1 °C 53.4 °F /  11.9 °C 30.16in /  1021.2hPa ESE 0.8mph /  1.3km/h 7mph /  11.3km/h 80.8% 0.00in /  0mm
04:59 59.2 °F /  15.1 °C 53.4 °F /  11.9 °C 30.16in /  1021.2hPa Calm     81% 0.00in /  0mm
05:04 59.2 °F /  15.1 °C 53.4 °F /  11.9 °C 30.16in /  1021.2hPa Calm     81% 0.00in /  0mm
05:09 59.1 °F /  15.1 °C 53.3 °F /  11.8 °C 30.16in /  1021.2hPa East 0.8mph /  1.3km/h 7mph /  11.3km/h 81% 0.00in /  0mm
05:14 59.1 °F /  15.1 °C 53.5 °F /  11.9 °C 30.16in /  1021.2hPa ESE 1.4mph /  2.3km/h 7mph /  11.3km/h 81.6% 0.00in /  0mm
05:19 59.1 °F /  15.1 °C 53.4 °F /  11.9 °C 30.16in /  1021.2hPa Calm   2mph /  3.2km/h 81.6% 0.00in /  0mm
05:24 58.9 °F /  14.9 °C 53.4 °F /  11.9 °C 30.16in /  1021.2hPa East 0.4mph /  0.6km/h 4mph /  6.4km/h 82% 0.00in /  0mm
05:29 58.9 °F /  14.9 °C 53.6 °F /  12 °C 30.16in /  1021.2hPa Calm   2mph /  3.2km/h 82.8% 0.00in /  0mm
05:34 59.1 °F /  15.1 °C 53.7 °F /  12.1 °C 30.17in /  1021.6hPa NE 1.2mph /  1.9km/h 5mph /  8km/h 82.4% 0.00in /  0mm
05:39 59.2 °F /  15.1 °C 53.7 °F /  12.1 °C 30.17in /  1021.6hPa ESE 1.2mph /  1.9km/h 7mph /  11.3km/h 82% 0.00in /  0mm
05:44 59.3 °F /  15.2 °C 53.8 °F /  12.1 °C 30.17in /  1021.6hPa East 1.6mph /  2.6km/h 10mph /  16.1km/h 82% 0.00in /  0mm
05:49 59.3 °F /  15.2 °C 53.8 °F /  12.1 °C 30.17in /  1021.6hPa Calm   7mph /  11.3km/h 82% 0.00in /  0mm
05:54 59.3 °F /  15.2 °C 53.8 °F /  12.1 °C 30.17in /  1021.6hPa Calm     82% 0.00in /  0mm
05:59 59.2 °F /  15.1 °C 53.7 °F /  12.1 °C 30.17in /  1021.6hPa East 0.4mph /  0.6km/h 2mph /  3.2km/h 82% 0.00in /  0mm
06:04 59.1 °F /  15.1 °C 53.7 °F /  12.1 °C 30.17in /  1021.6hPa East 0.4mph /  0.6km/h 4mph /  6.4km/h 82.2% 0.00in /  0mm
06:09 59.1 °F /  15.1 °C 53.9 °F /  12.2 °C 30.18in /  1021.9hPa Calm   4mph /  6.4km/h 83% 0.00in /  0mm
06:14 59.1 °F /  15.1 °C 53.9 °F /  12.2 °C 30.18in /  1021.9hPa Calm     83% 0.00in /  0mm
06:19 59.1 °F /  15.1 °C 53.9 °F /  12.2 °C 30.18in /  1021.9hPa SSE 0.4mph /  0.6km/h 2mph /  3.2km/h 83% 0.00in /  0mm
06:24 59.3 °F /  15.2 °C 54.1 °F /  12.3 °C 30.18in /  1021.9hPa Calm   4mph /  6.4km/h 83% 0.00in /  0mm
06:29 59.4 °F /  15.2 °C 54.2 °F /  12.3 °C 30.18in /  1021.9hPa East 1.2mph /  1.9km/h 5mph /  8km/h 83% 0.00in /  0mm
06:34 59.5 °F /  15.3 °C 54.3 °F /  12.4 °C 30.18in /  1021.9hPa Calm   2mph /  3.2km/h 83% 0.00in /  0mm
06:39 59.6 °F /  15.3 °C 54.4 °F /  12.4 °C 30.18in /  1021.9hPa Calm     83% 0.00in /  0mm
06:44 59.6 °F /  15.3 °C 54.4 °F /  12.4 °C 30.18in /  1021.9hPa Calm     83% 0.00in /  0mm
06:49 59.7 °F /  15.4 °C 54.5 °F /  12.5 °C 30.18in /  1021.9hPa East 0.4mph /  0.6km/h 2mph /  3.2km/h 83% 0.00in /  0mm
06:54 59.7 °F /  15.4 °C 54.5 °F /  12.5 °C 30.19in /  1022.2hPa Calm   2mph /  3.2km/h 83% 0.00in /  0mm
06:59 59.7 °F /  15.4 °C 54.5 °F /  12.5 °C 30.19in /  1022.2hPa Calm     83% 0.00in /  0mm
07:04 59.7 °F /  15.4 °C 54.5 °F /  12.5 °C 30.19in /  1022.2hPa Calm     83% 0.00in /  0mm
07:09 59.6 °F /  15.3 °C 54.4 °F /  12.4 °C 30.19in /  1022.2hPa Calm     83% 0.00in /  0mm
07:14 59.7 °F /  15.4 °C 54.5 °F /  12.5 °C 30.19in /  1022.2hPa Calm     83% 0.00in /  0mm
07:19 59.7 °F /  15.4 °C 54.7 °F /  12.6 °C 30.19in /  1022.2hPa Calm     83.6% 0.00in /  0mm
07:24 59.7 °F /  15.4 °C 54.7 °F /  12.6 °C 30.19in /  1022.2hPa Calm     83.6% 0.00in /  0mm
07:29 59.8 °F /  15.4 °C 54.8 °F /  12.7 °C 30.20in /  1022.6hPa Calm   12mph /  19.3km/h 83.6% 0.00in /  0mm
07:34 59.8 °F /  15.4 °C 54.6 °F /  12.6 °C 30.20in /  1022.6hPa Calm   7mph /  11.3km/h 83% 0.00in /  0mm
07:39 59.8 °F /  15.4 °C 54.6 °F /  12.6 °C 30.20in /  1022.6hPa ESE 1mph /  1.6km/h 7mph /  11.3km/h 83% 0.00in /  0mm
07:44 59.9 °F /  15.5 °C 54.7 °F /  12.6 °C 30.20in /  1022.6hPa Calm   12mph /  19.3km/h 83% 0.00in /  0mm
07:49 59.9 °F /  15.5 °C 54.7 °F /  12.6 °C 30.21in /  1022.9hPa Calm   5mph /  8km/h 83% 0.00in /  0mm
07:54 60 °F /  15.6 °C 54.8 °F /  12.7 °C 30.21in /  1022.9hPa Calm   4mph /  6.4km/h 83% 0.00in /  0mm
07:59 60 °F /  15.6 °C 55 °F /  12.8 °C 30.21in /  1022.9hPa Calm     83.4% 0.00in /  0mm
08:04 60.2 °F /  15.7 °C 55.2 °F /  12.9 °C 30.21in /  1022.9hPa Calm   2mph /  3.2km/h 83.4% 0.00in /  0mm
08:09 60.6 °F /  15.9 °C 55.4 °F /  13 °C 30.21in /  1022.9hPa Calm     83% 0.00in /  0mm
08:14 61.1 °F /  16.2 °C 56 °F /  13.3 °C 30.21in /  1022.9hPa Calm   9mph /  14.5km/h 83.4% 0.00in /  0mm
08:19 61.7 °F /  16.5 °C 56.2 °F /  13.4 °C 30.21in /  1022.9hPa Calm   9mph /  14.5km/h 82.2% 0.00in /  0mm
08:24 62.2 °F /  16.8 °C 56.5 °F /  13.6 °C 30.21in /  1022.9hPa Calm   2mph /  3.2km/h 81.6% 0.00in /  0mm
08:29 62.5 °F /  16.9 °C 56.7 °F /  13.7 °C 30.22in /  1023.2hPa East 0.4mph /  0.6km/h 4mph /  6.4km/h 81.2% 0.00in /  0mm
08:34 63 °F /  17.2 °C 56.9 °F /  13.8 °C 30.22in /  1023.2hPa Calm   4mph /  6.4km/h 80.4% 0.00in /  0mm
08:39 63.4 °F /  17.4 °C 57.1 °F /  13.9 °C 30.22in /  1023.2hPa NNE 0.8mph /  1.3km/h 5mph /  8km/h 80.2% 0.00in /  0mm
08:44 63.7 °F /  17.6 °C 57.3 °F /  14.1 °C 30.22in /  1023.2hPa ENE 1.8mph /  2.9km/h 12mph /  19.3km/h 79.8% 0.00in /  0mm
08:49 63.8 °F /  17.7 °C 57.2 °F /  14 °C 30.22in /  1023.2hPa Calm   7mph /  11.3km/h 79% 0.00in /  0mm
08:54 64 °F /  17.8 °C 57.4 °F /  14.1 °C 30.22in /  1023.2hPa North 0.8mph /  1.3km/h 7mph /  11.3km/h 79% 0.00in /  0mm
08:59 64.2 °F /  17.9 °C 57.5 °F /  14.2 °C 30.22in /  1023.2hPa East 0.4mph /  0.6km/h 9mph /  14.5km/h 79% 0.00in /  0mm
09:04 64.4 °F /  18 °C 57.7 °F /  14.3 °C 30.22in /  1023.2hPa SE 1mph /  1.6km/h 5mph /  8km/h 79% 0.00in /  0mm
09:09 64.7 °F /  18.2 °C 57.9 °F /  14.4 °C 30.23in /  1023.6hPa Calm     78.6% 0.00in /  0mm
09:14 64.9 °F /  18.3 °C 57.9 °F /  14.4 °C 30.23in /  1023.6hPa Calm     78% 0.00in /  0mm
09:19 65.3 °F /  18.5 °C 58.5 °F /  14.7 °C 30.23in /  1023.6hPa Calm     78.6% 0.00in /  0mm
09:24 65.6 °F /  18.7 °C 58.4 °F /  14.7 °C 30.23in /  1023.6hPa Calm     77.6% 0.00in /  0mm
09:29 65.8 °F /  18.8 °C 58.7 °F /  14.8 °C 30.23in /  1023.6hPa Calm     78% 0.00in /  0mm
09:34 65.9 °F /  18.8 °C 58.8 °F /  14.9 °C 30.23in /  1023.6hPa Calm     78% 0.00in /  0mm
09:39 66.1 °F /  18.9 °C 59 °F /  15 °C 30.23in /  1023.6hPa Calm     77.8% 0.00in /  0mm
09:49 67.1 °F /  19.5 °C 60.2 °F /  15.7 °C 30.23in /  1023.6hPa WNW 1.4mph /  2.3km/h 7mph /  11.3km/h 78.4% 0.00in /  0mm
09:54 67.7 °F /  19.8 °C 59.9 °F /  15.5 °C 30.23in /  1023.6hPa ENE 1.4mph /  2.3km/h 9mph /  14.5km/h 76.2% 0.00in /  0mm
09:59 67.9 °F /  19.9 °C 59.9 °F /  15.5 °C 30.23in /  1023.6hPa East 2.8mph /  4.5km/h 12mph /  19.3km/h 75.6% 0.00in /  0mm
10:04 68.1 °F /  20.1 °C 60.2 °F /  15.7 °C 30.23in /  1023.6hPa NNE 1.6mph /  2.6km/h 16mph /  25.7km/h 75.8% 0.00in /  0mm
10:09 68.3 °F /  20.2 °C 60.3 °F /  15.7 °C 30.23in /  1023.6hPa North 0.4mph /  0.6km/h 16mph /  25.7km/h 75.6% 0.00in /  0mm
10:14 68.5 °F /  20.3 °C 60.4 °F /  15.8 °C 30.23in /  1023.6hPa ESE 0.8mph /  1.3km/h 16mph /  25.7km/h 75.4% 0.00in /  0mm
10:19 69 °F /  20.6 °C 61 °F /  16.1 °C 30.23in /  1023.6hPa North 0.8mph /  1.3km/h 7mph /  11.3km/h 75.8% 0.00in /  0mm
10:24 69.4 °F /  20.8 °C 61.1 °F /  16.2 °C 30.23in /  1023.6hPa NW 1.6mph /  2.6km/h 9mph /  14.5km/h 75% 0.00in /  0mm
10:29 69.4 °F /  20.8 °C 60.9 °F /  16.1 °C 30.23in /  1023.6hPa ENE 1.6mph /  2.6km/h 9mph /  14.5km/h 74.2% 0.00in /  0mm
10:34 69.7 °F /  20.9 °C 61.2 °F /  16.2 °C 30.23in /  1023.6hPa East 1.4mph /  2.3km/h 12mph /  19.3km/h 74.4% 0.00in /  0mm
10:39 70.2 °F /  21.2 °C 61.2 °F /  16.2 °C 30.23in /  1023.6hPa ENE 2.4mph /  3.9km/h 12mph /  19.3km/h 73.2% 0.00in /  0mm
10:44 70.7 °F /  21.5 °C 61.6 °F /  16.4 °C 30.23in /  1023.6hPa SE 2mph /  3.2km/h 12mph /  19.3km/h 73.2% 0.00in /  0mm
10:49 71.2 °F /  21.8 °C 61.8 °F /  16.6 °C 30.23in /  1023.6hPa NNW 2.4mph /  3.9km/h 9mph /  14.5km/h 72.4% 0.00in /  0mm
10:54 71.4 °F /  21.9 °C 61.7 °F /  16.5 °C 30.23in /  1023.6hPa North 4mph /  6.4km/h 9mph /  14.5km/h 71.6% 0.00in /  0mm
10:59 71.5 °F /  21.9 °C 62.1 °F /  16.7 °C 30.22in /  1023.2hPa ENE 1.8mph /  2.9km/h 10mph /  16.1km/h 72.4% 0.00in /  0mm
11:04 71.8 °F /  22.1 °C 62.3 °F /  16.8 °C 30.22in /  1023.2hPa ESE 1.6mph /  2.6km/h 9mph /  14.5km/h 72.2% 0.00in /  0mm
11:09 71.9 °F /  22.2 °C 62.2 °F /  16.8 °C 30.22in /  1023.2hPa NNW 0.8mph /  1.3km/h 5mph /  8km/h 71.6% 0.00in /  0mm
11:14 72 °F /  22.2 °C 62.1 °F /  16.7 °C 30.22in /  1023.2hPa ENE 1.4mph /  2.3km/h 7mph /  11.3km/h 71% 0.00in /  0mm
11:19 72.5 °F /  22.5 °C 62.3 °F /  16.8 °C 30.22in /  1023.2hPa NE 2.2mph /  3.5km/h 9mph /  14.5km/h 70.2% 0.00in /  0mm
11:24 73 °F /  22.8 °C 62.5 °F /  16.9 °C 30.22in /  1023.2hPa ESE 1.4mph /  2.3km/h 7mph /  11.3km/h 69.8% 0.00in /  0mm
11:29 73.3 °F /  22.9 °C 62.5 °F /  16.9 °C 30.22in /  1023.2hPa NNE 2mph /  3.2km/h 9mph /  14.5km/h 69.2% 0.00in /  0mm
11:34 73.7 °F /  23.2 °C 63 °F /  17.2 °C 30.22in /  1023.2hPa ESE 2.8mph /  4.5km/h 10mph /  16.1km/h 69.2% 0.00in /  0mm
11:39 74.1 °F /  23.4 °C 62.8 °F /  17.1 °C 30.21in /  1022.9hPa Calm   10mph /  16.1km/h 67.8% 0.00in /  0mm
11:44 74.7 °F /  23.7 °C 63.6 °F /  17.6 °C 30.21in /  1022.9hPa Calm   9mph /  14.5km/h 68.4% 0.00in /  0mm
11:49 75 °F /  23.9 °C 63.2 °F /  17.3 °C 30.21in /  1022.9hPa NW 1.8mph /  2.9km/h 7mph /  11.3km/h 66.8% 0.00in /  0mm
11:54 75.1 °F /  23.9 °C 63.4 °F /  17.4 °C 30.21in /  1022.9hPa ESE 1.2mph /  1.9km/h 12mph /  19.3km/h 66.8% 0.00in /  0mm
11:59 75.2 °F /  24 °C 63.2 °F /  17.3 °C 30.21in /  1022.9hPa NW 1.2mph /  1.9km/h 10mph /  16.1km/h 66.4% 0.00in /  0mm
12:04 75.1 °F /  23.9 °C 63.1 °F /  17.3 °C 30.21in /  1022.9hPa NE 4.2mph /  6.8km/h 14mph /  22.5km/h 66.2% 0.00in /  0mm
12:09 75.3 °F /  24.1 °C 62.8 °F /  17.1 °C 30.21in /  1022.9hPa West 0.4mph /  0.6km/h 14mph /  22.5km/h 65.2% 0.00in /  0mm
12:14 75.5 °F /  24.2 °C 62.8 °F /  17.1 °C 30.21in /  1022.9hPa NNW 2.8mph /  4.5km/h 9mph /  14.5km/h 64.8% 0.00in /  0mm
12:19 75.8 °F /  24.3 °C 62.9 °F /  17.2 °C 30.21in /  1022.9hPa NNW 1.8mph /  2.9km/h 10mph /  16.1km/h 64.2% 0.00in /  0mm
12:24 76.1 °F /  24.5 °C 62.5 °F /  16.9 °C 30.21in /  1022.9hPa NNW 1.8mph /  2.9km/h 10mph /  16.1km/h 62.8% 0.00in /  0mm
12:29 76.3 °F /  24.6 °C 62.8 °F /  17.1 °C 30.21in /  1022.9hPa NNW 2.8mph /  4.5km/h 10mph /  16.1km/h 63.2% 0.00in /  0mm
12:34 76.3 °F /  24.6 °C 62.7 °F /  17.1 °C 30.21in /  1022.9hPa WNW 2.4mph /  3.9km/h 9mph /  14.5km/h 62.8% 0.00in /  0mm
12:39 76.5 °F /  24.7 °C 62.7 °F /  17.1 °C 30.20in /  1022.6hPa NE 1.6mph /  2.6km/h 10mph /  16.1km/h 62.4% 0.00in /  0mm
12:44 76.8 °F /  24.9 °C 62.5 °F /  16.9 °C 30.20in /  1022.6hPa SE 3.4mph /  5.5km/h 10mph /  16.1km/h 61.4% 0.00in /  0mm
12:49 77.1 °F /  25.1 °C 62.8 °F /  17.1 °C 30.20in /  1022.6hPa East 2.4mph /  3.9km/h 10mph /  16.1km/h 61.4% 0.00in /  0mm
12:54 77.7 °F /  25.4 °C 63.3 °F /  17.4 °C 30.20in /  1022.6hPa East 2.2mph /  3.5km/h 9mph /  14.5km/h 61.4% 0.00in /  0mm
12:59 78.1 °F /  25.6 °C 63.2 °F /  17.3 °C 30.20in /  1022.6hPa NNE 3.6mph /  5.8km/h 14mph /  22.5km/h 60.2% 0.00in /  0mm
13:04 78.3 °F /  25.7 °C 62.6 °F /  17 °C 30.20in /  1022.6hPa ENE 4.6mph /  7.4km/h 18mph /  29km/h 58.6% 0.00in /  0mm
13:09 78.4 °F /  25.8 °C 62.2 °F /  16.8 °C 30.20in /  1022.6hPa East 1.2mph /  1.9km/h 9mph /  14.5km/h 57.6% 0.00in /  0mm
13:14 78.7 °F /  25.9 °C 62.3 °F /  16.8 °C 30.20in /  1022.6hPa ESE 3.4mph /  5.5km/h 12mph /  19.3km/h 57.2% 0.00in /  0mm
13:19 78.9 °F /  26.1 °C 62.9 °F /  17.2 °C 30.20in /  1022.6hPa NNE 1mph /  1.6km/h 10mph /  16.1km/h 58.2% 0.00in /  0mm
13:24 78.9 °F /  26.1 °C 63 °F /  17.2 °C 30.19in /  1022.2hPa WNW 1.8mph /  2.9km/h 18mph /  29km/h 58.2% 0.00in /  0mm
13:29 79.1 °F /  26.2 °C 62.1 °F /  16.7 °C 30.19in /  1022.2hPa East 5mph /  8km/h 16mph /  25.7km/h 56% 0.00in /  0mm
13:34 79.1 °F /  26.2 °C 61.8 °F /  16.6 °C 30.19in /  1022.2hPa ENE 5mph /  8km/h 16mph /  25.7km/h 55.6% 0.00in /  0mm
13:39 79.2 °F /  26.2 °C 62.3 °F /  16.8 °C 30.19in /  1022.2hPa WSW 2.8mph /  4.5km/h 12mph /  19.3km/h 56.2% 0.00in /  0mm
13:44 79.3 °F /  26.3 °C 62.4 °F /  16.9 °C 30.18in /  1021.9hPa SE 1.4mph /  2.3km/h 9mph /  14.5km/h 56.4% 0.00in /  0mm
13:49 79.6 °F /  26.4 °C 62.4 °F /  16.9 °C 30.18in /  1021.9hPa East 1mph /  1.6km/h 9mph /  14.5km/h 55.8% 0.00in /  0mm
13:54 79.8 °F /  26.6 °C 62.4 °F /  16.9 °C 30.18in /  1021.9hPa SW 3mph /  4.8km/h 9mph /  14.5km/h 55.4% 0.00in /  0mm
13:59 79.9 °F /  26.6 °C 62.2 °F /  16.8 °C 30.18in /  1021.9hPa NNE 4mph /  6.4km/h 9mph /  14.5km/h 54.8% 0.00in /  0mm
14:04 80.1 °F /  26.7 °C 62.4 °F /  16.9 °C 30.18in /  1021.9hPa South 3.6mph /  5.8km/h 10mph /  16.1km/h 54.8% 0.00in /  0mm
14:09 80.2 °F /  26.8 °C 62.4 °F /  16.9 °C 30.17in /  1021.6hPa NE 3.8mph /  6.1km/h 16mph /  25.7km/h 54.6% 0.00in /  0mm
14:14 80.2 °F /  26.8 °C 62.8 °F /  17.1 °C 30.17in /  1021.6hPa SE 2.8mph /  4.5km/h 16mph /  25.7km/h 55.4% 0.00in /  0mm
14:19 80.2 °F /  26.8 °C 62.5 °F /  16.9 °C 30.17in /  1021.6hPa SE 0.4mph /  0.6km/h 9mph /  14.5km/h 54.8% 0.00in /  0mm
14:24 80.5 °F /  26.9 °C 62.5 °F /  16.9 °C 30.16in /  1021.2hPa ESE 5.6mph /  9km/h 14mph /  22.5km/h 54.2% 0.00in /  0mm
14:29 80.5 °F /  26.9 °C 62.1 °F /  16.7 °C 30.16in /  1021.2hPa East 4.2mph /  6.8km/h 14mph /  22.5km/h 53.6% 0.00in /  0mm
14:34 80.5 °F /  26.9 °C 62.3 °F /  16.8 °C 30.16in /  1021.2hPa East 1.8mph /  2.9km/h 10mph /  16.1km/h 54% 0.00in /  0mm
14:39 80.5 °F /  26.9 °C 62.9 °F /  17.2 °C 30.16in /  1021.2hPa Calm   9mph /  14.5km/h 55.2% 0.00in /  0mm
14:44 80.2 °F /  26.8 °C 61.8 °F /  16.6 °C 30.16in /  1021.2hPa ESE 6.2mph /  10km/h 21mph /  33.8km/h 53.6% 0.00in /  0mm
14:49 80.1 °F /  26.7 °C 61.7 °F /  16.5 °C 30.15in /  1020.9hPa SE 3.4mph /  5.5km/h 21mph /  33.8km/h 53.4% 0.00in /  0mm
14:54 80.2 °F /  26.8 °C 62.3 °F /  16.8 °C 30.15in /  1020.9hPa East 6.8mph /  10.9km/h 19mph /  30.6km/h 54.4% 0.00in /  0mm
14:59 80.3 °F /  26.8 °C 62.3 °F /  16.8 °C 30.15in /  1020.9hPa NE 4.6mph /  7.4km/h 16mph /  25.7km/h 54.2% 0.00in /  0mm
15:04 80.3 °F /  26.8 °C 62.1 °F /  16.7 °C 30.15in /  1020.9hPa ESE 5mph /  8km/h 18mph /  29km/h 54% 0.00in /  0mm
15:09 80.4 °F /  26.9 °C 62.6 °F /  17 °C 30.14in /  1020.5hPa ESE 1.2mph /  1.9km/h 12mph /  19.3km/h 54.8% 0.00in /  0mm
15:14 80.6 °F /  27 °C 62.5 °F /  16.9 °C 30.14in /  1020.5hPa SE 2.8mph /  4.5km/h 14mph /  22.5km/h 54.2% 0.00in /  0mm
15:19 80.5 °F /  26.9 °C 63.3 °F /  17.4 °C 30.14in /  1020.5hPa SE 1.2mph /  1.9km/h 14mph /  22.5km/h 55.8% 0.00in /  0mm
15:24 80.4 °F /  26.9 °C 63.6 °F /  17.6 °C 30.14in /  1020.5hPa West 1.8mph /  2.9km/h 7mph /  11.3km/h 56.6% 0.00in /  0mm
15:29 80.6 °F /  27 °C 63.1 °F /  17.3 °C 30.14in /  1020.5hPa SSE 3.2mph /  5.1km/h 10mph /  16.1km/h 55.2% 0.00in /  0mm
15:34 80.6 °F /  27 °C 62.3 °F /  16.8 °C 30.14in /  1020.5hPa ESE 5.6mph /  9km/h 19mph /  30.6km/h 53.8% 0.00in /  0mm
15:39 80.5 °F /  26.9 °C 62.6 °F /  17 °C 30.14in /  1020.5hPa SSW 1.8mph /  2.9km/h 19mph /  30.6km/h 54.6% 0.00in /  0mm
15:44 80.5 °F /  26.9 °C 62.5 °F /  16.9 °C 30.14in /  1020.5hPa SSE 2.8mph /  4.5km/h 16mph /  25.7km/h 54.4% 0.00in /  0mm
15:49 80.4 °F /  26.9 °C 62.4 °F /  16.9 °C 30.14in /  1020.5hPa SE 3.6mph /  5.8km/h 16mph /  25.7km/h 54.4% 0.00in /  0mm
15:54 80.4 °F /  26.9 °C 62.9 °F /  17.2 °C 30.14in /  1020.5hPa WNW 1.2mph /  1.9km/h 9mph /  14.5km/h 55.2% 0.00in /  0mm
15:59 80.5 °F /  26.9 °C 63.1 °F /  17.3 °C 30.14in /  1020.5hPa WNW 0.4mph /  0.6km/h 9mph /  14.5km/h 55.6% 0.00in /  0mm
16:04 80.5 °F /  26.9 °C 63.2 °F /  17.3 °C 30.14in /  1020.5hPa Calm   2mph /  3.2km/h 55.6% 0.00in /  0mm
16:09 80.8 °F /  27.1 °C 63.5 °F /  17.5 °C 30.14in /  1020.5hPa Calm   2mph /  3.2km/h 55.8% 0.00in /  0mm
16:14 80.9 °F /  27.2 °C 63.2 °F /  17.3 °C 30.14in /  1020.5hPa ENE 1.4mph /  2.3km/h 9mph /  14.5km/h 55% 0.00in /  0mm
16:19 80.7 °F /  27.1 °C 62.9 °F /  17.2 °C 30.14in /  1020.5hPa ENE 1.6mph /  2.6km/h 5mph /  8km/h 54.8% 0.00in /  0mm
16:24 80.5 °F /  26.9 °C 63.5 °F /  17.5 °C 30.14in /  1020.5hPa SSE 0.4mph /  0.6km/h 16mph /  25.7km/h 56.2% 0.00in /  0mm
16:29 80.8 °F /  27.1 °C 63.6 °F /  17.6 °C 30.13in /  1020.2hPa ENE 0.8mph /  1.3km/h 4mph /  6.4km/h 56% 0.00in /  0mm
16:39 80.9 °F /  27.2 °C 62.8 °F /  17.1 °C 30.13in /  1020.2hPa NNW 1.4mph /  2.3km/h 12mph /  19.3km/h 54.2% 0.00in /  0mm
16:44 80.8 °F /  27.1 °C 63.4 °F /  17.4 °C 30.13in /  1020.2hPa Calm   12mph /  19.3km/h 55.6% 0.00in /  0mm
16:49 80.9 °F /  27.2 °C 63.1 °F /  17.3 °C 30.13in /  1020.2hPa East 1.2mph /  1.9km/h 14mph /  22.5km/h 54.8% 0.00in /  0mm
16:54 80.7 °F /  27.1 °C 62.8 °F /  17.1 °C 30.13in /  1020.2hPa NE 0.4mph /  0.6km/h 14mph /  22.5km/h 54.6% 0.00in /  0mm
16:59 80.4 °F /  26.9 °C 62.7 °F /  17.1 °C 30.13in /  1020.2hPa SSE 0.8mph /  1.3km/h 12mph /  19.3km/h 54.8% 0.00in /  0mm
17:04 80 °F /  26.7 °C 62.7 °F /  17.1 °C 30.13in /  1020.2hPa East 2.4mph /  3.9km/h 14mph /  22.5km/h 55.6% 0.00in /  0mm
17:09 79.9 °F /  26.6 °C 62.1 °F /  16.7 °C 30.13in /  1020.2hPa SE 2.8mph /  4.5km/h 14mph /  22.5km/h 54.6% 0.00in /  0mm
17:14 79.8 °F /  26.6 °C 62.1 °F /  16.7 °C 30.13in /  1020.2hPa SE 1mph /  1.6km/h 14mph /  22.5km/h 54.8% 0.00in /  0mm
17:19 79.8 °F /  26.6 °C 62.5 °F /  16.9 °C 30.13in /  1020.2hPa ESE 0.4mph /  0.6km/h 9mph /  14.5km/h 55.6% 0.00in /  0mm
17:24 79.8 °F /  26.6 °C 62.2 °F /  16.8 °C 30.13in /  1020.2hPa SSE 0.4mph /  0.6km/h 2mph /  3.2km/h 55% 0.00in /  0mm
17:29 79.7 °F /  26.5 °C 62.2 °F /  16.8 °C 30.13in /  1020.2hPa Calm   7mph /  11.3km/h 55.2% 0.00in /  0mm
17:34 79.5 °F /  26.4 °C 62.1 °F /  16.7 °C 30.14in /  1020.5hPa WNW 0.8mph /  1.3km/h 7mph /  11.3km/h 55.4% 0.00in /  0mm
17:39 79.2 °F /  26.2 °C 61.9 °F /  16.6 °C 30.13in /  1020.2hPa Calm   7mph /  11.3km/h 55.6% 0.00in /  0mm
17:44 78.7 °F /  25.9 °C 61.8 °F /  16.6 °C 30.14in /  1020.5hPa Calm   5mph /  8km/h 56.2% 0.00in /  0mm
17:49 78.4 °F /  25.8 °C 62.1 °F /  16.7 °C 30.14in /  1020.5hPa Calm   2mph /  3.2km/h 57.4% 0.00in /  0mm
17:54 78.2 °F /  25.7 °C 62.4 °F /  16.9 °C 30.14in /  1020.5hPa NE 1.2mph /  1.9km/h 5mph /  8km/h 58.4% 0.00in /  0mm
17:59 78 °F /  25.6 °C 62.7 °F /  17.1 °C 30.14in /  1020.5hPa Calm   10mph /  16.1km/h 59.4% 0.00in /  0mm
18:04 77.9 °F /  25.5 °C 62.3 °F /  16.8 °C 30.14in /  1020.5hPa Calm   10mph /  16.1km/h 58.8% 0.00in /  0mm
18:09 77.7 °F /  25.4 °C 62.7 °F /  17.1 °C 30.14in /  1020.5hPa Calm   10mph /  16.1km/h 60% 0.00in /  0mm
18:14 77.5 °F /  25.3 °C 62.7 °F /  17.1 °C 30.14in /  1020.5hPa Calm   4mph /  6.4km/h 60.4% 0.00in /  0mm
18:19 77.4 °F /  25.2 °C 62.7 °F /  17.1 °C 30.14in /  1020.5hPa Calm   2mph /  3.2km/h 60.6% 0.00in /  0mm
18:24 77.2 °F /  25.1 °C 62.5 °F /  16.9 °C 30.14in /  1020.5hPa Calm     60.6% 0.00in /  0mm
18:29 77.1 °F /  25.1 °C 63 °F /  17.2 °C 30.14in /  1020.5hPa Calm     62% 0.00in /  0mm
18:34 76.8 °F /  24.9 °C 62.9 °F /  17.2 °C 30.14in /  1020.5hPa Calm     62.2% 0.00in /  0mm
18:39 76.5 °F /  24.7 °C 63.1 °F /  17.3 °C 30.14in /  1020.5hPa Calm     63.2% 0.00in /  0mm
18:44 76.2 °F /  24.6 °C 63.4 °F /  17.4 °C 30.15in /  1020.9hPa Calm     64.6% 0.00in /  0mm
18:49 76 °F /  24.4 °C 63.6 °F /  17.6 °C 30.15in /  1020.9hPa Calm     65.4% 0.00in /  0mm
18:54 75.7 °F /  24.3 °C 63.6 °F /  17.6 °C 30.15in /  1020.9hPa Calm     66.2% 0.00in /  0mm
Hot Springs, Arkansas, USA
Compliments of Weather Underground - 4 mb